Santa Margherita — V7JA2 — position and weather

sailwx.info

Track history (hours):
 
Tides and Currents Weather Stations Pressure Air Temp Water Temp Dewpoint Dewpoint Depression Visibility Wind Speed Wind Dir Waves Ship Positions

Santa Margherita

Last reported at 2016-May-17 21:29 UTC. Time now 2016-Jun-26 12:03 UTC.
Position N 31°16' E 032°19'.
Warning: this ship's position is 39 days out of date.

Length 190 m; draft 12.7 m.

MMSI: 538090191.

Date/timePositionNaut miles runAvg speedWind from/ knotsBaromVisibWave heightAir tempDewpointWater temp
2016-May-17 21:29N 31°16' E 032°19'0 0.0
2016-May-17 20:32N 31°16' E 032°20'0 0.0
2016-May-17 19:31N 31°16' E 032°19'0 0.0
2016-May-17 18:31N 31°16' E 032°19'0 0.0
2016-May-17 17:31N 31°16' E 032°19'0 0.0
2016-May-17 16:31N 31°16' E 032°19'0 0.0
2016-May-17 15:28N 31°16' E 032°19'0 0.0
2016-May-17 14:33N 31°16' E 032°19'4 4.1
2016-May-17 13:30N 31°20' E 032°22'4 4.4
2016-May-17 12:33N 31°23' E 032°19'0 0.3
2016-May-17 11:33N 31°22' E 032°20'0 0.0
2016-May-17 10:33N 31°22' E 032°20'0 0.0
2016-May-17 09:33N 31°22' E 032°20'0 0.0
2016-May-17 08:32N 31°22' E 032°19'0 0.0
2016-May-17 07:32N 31°22' E 032°20'0 0.0
2016-May-17 06:32N 31°22' E 032°19'0 0.0
2016-May-17 05:29N 31°22' E 032°19'0 0.1
2016-May-17 04:31N 31°23' E 032°20'3 2.9
2016-May-17 03:33N 31°25' E 032°21'3 3.0
2016-May-17 02:33N 31°28' E 032°21'8 7.9
2016-May-17 01:33N 31°36' E 032°22'1111.0
2016-May-17 00:32N 31°42' E 032°34'1210.5
2016-May-16 23:25N 31°53' E 032°39'1011.3
2016-May-16 22:33N 32°01' E 032°44'1211.5
2016-May-16 21:33N 32°12' E 032°51'1711.7
2016-May-16 20:05N 32°27' E 033°00'611.8
2016-May-16 19:33N 32°32' E 033°04'1212.0
2016-May-16 18:33N 32°43' E 033°11'1212.1
2016-May-16 17:33N 32°53' E 033°17'1211.7
2016-May-16 16:33N 33°04' E 033°24'1211.8
2016-May-16 15:33N 33°14' E 033°31'1211.8
2016-May-16 14:33N 33°25' E 033°37'1211.8
2016-May-16 13:33N 33°35' E 033°44'1211.9
2016-May-16 12:33N 33°46' E 033°50'1111.5
2016-May-16 11:33N 33°56' E 033°57'1111.4
2016-May-16 10:33N 34°06' E 034°03'1111.2
2016-May-16 09:33N 34°16' E 034°10'6111.0
2016-May-16 04:03N 35°09' E 034°44'511.1
2016-May-16 03:33N 35°14' E 034°47'1111.1
2016-May-16 02:33N 35°24' E 034°54'  
Track history (hours):
 
Tides and Currents Weather Stations Pressure Air Temp Water Temp Dewpoint Dewpoint Depression Visibility Wind Speed Wind Dir Waves Ship Positions

Santa Margherita

Last reported at 2016-May-17 21:29 UTC. Time now 2016-Jun-26 12:03 UTC.
Position N 31°16' E 032°19'.
Warning: this ship's position is 39 days out of date.

Length 190 m; draft 12.7 m.

MMSI: 538090191.

Date/timePositionNaut miles runAvg speedWind from/ knotsBaromVisibWave heightAir tempDewpointWater temp
2016-May-17 21:29N 31°16' E 032°19'0 0.0
2016-May-17 20:32N 31°16' E 032°20'0 0.0
2016-May-17 19:31N 31°16' E 032°19'0 0.0
2016-May-17 18:31N 31°16' E 032°19'0 0.0
2016-May-17 17:31N 31°16' E 032°19'0 0.0
2016-May-17 16:31N 31°16' E 032°19'0 0.0
2016-May-17 15:28N 31°16' E 032°19'0 0.0
2016-May-17 14:33N 31°16' E 032°19'4 4.1
2016-May-17 13:30N 31°20' E 032°22'4 4.4
2016-May-17 12:33N 31°23' E 032°19'0 0.3
2016-May-17 11:33N 31°22' E 032°20'0 0.0
2016-May-17 10:33N 31°22' E 032°20'0 0.0
2016-May-17 09:33N 31°22' E 032°20'0 0.0
2016-May-17 08:32N 31°22' E 032°19'0 0.0
2016-May-17 07:32N 31°22' E 032°20'0 0.0
2016-May-17 06:32N 31°22' E 032°19'0 0.0
2016-May-17 05:29N 31°22' E 032°19'0 0.1
2016-May-17 04:31N 31°23' E 032°20'3 2.9
2016-May-17 03:33N 31°25' E 032°21'3 3.0
2016-May-17 02:33N 31°28' E 032°21'8 7.9
2016-May-17 01:33N 31°36' E 032°22'1111.0
2016-May-17 00:32N 31°42' E 032°34'1210.5
2016-May-16 23:25N 31°53' E 032°39'1011.3
2016-May-16 22:33N 32°01' E 032°44'1211.5
2016-May-16 21:33N 32°12' E 032°51'1711.7
2016-May-16 20:05N 32°27' E 033°00'611.8
2016-May-16 19:33N 32°32' E 033°04'1212.0
2016-May-16 18:33N 32°43' E 033°11'1212.1
2016-May-16 17:33N 32°53' E 033°17'1211.7
2016-May-16 16:33N 33°04' E 033°24'1211.8
2016-May-16 15:33N 33°14' E 033°31'1211.8
2016-May-16 14:33N 33°25' E 033°37'1211.8
2016-May-16 13:33N 33°35' E 033°44'1211.9
2016-May-16 12:33N 33°46' E 033°50'1111.5
2016-May-16 11:33N 33°56' E 033°57'1111.4
2016-May-16 10:33N 34°06' E 034°03'1111.2
2016-May-16 09:33N 34°16' E 034°10'6111.0
2016-May-16 04:03N 35°09' E 034°44'511.1
2016-May-16 03:33N 35°14' E 034°47'1111.1
2016-May-16 02:33N 35°24' E 034°54'  

Dump ship's entire track history